sensor_id;sensor_type;location;lat;lon;timestamp;temperature;humidity
33023;DHT22;19390;51.460;5.710;2022-10-16T00:00:17;12.80;99.90
33023;DHT22;19390;51.460;5.710;2022-10-16T00:02:43;12.80;99.90
33023;DHT22;19390;51.460;5.710;2022-10-16T00:05:08;12.80;99.90
33023;DHT22;19390;51.460;5.710;2022-10-16T00:07:34;12.80;99.90
33023;DHT22;19390;51.460;5.710;2022-10-16T00:10:00;12.80;99.90
33023;DHT22;19390;51.460;5.710;2022-10-16T00:12:25;12.80;99.90
33023;DHT22;19390;51.460;5.710;2022-10-16T00:14:51;12.70;99.90
33023;DHT22;19390;51.460;5.710;2022-10-16T00:17:17;12.70;99.90
33023;DHT22;19390;51.460;5.710;2022-10-16T00:19:43;12.70;99.90
33023;DHT22;19390;51.460;5.710;2022-10-16T00:22:09;12.60;99.90
33023;DHT22;19390;51.460;5.710;2022-10-16T00:24:34;12.80;99.90
33023;DHT22;19390;51.460;5.710;2022-10-16T00:27:00;12.70;99.90
33023;DHT22;19390;51.460;5.710;2022-10-16T00:29:25;12.80;99.90
33023;DHT22;19390;51.460;5.710;2022-10-16T00:31:51;12.60;99.90
33023;DHT22;19390;51.460;5.710;2022-10-16T00:34:17;12.60;99.90
33023;DHT22;19390;51.460;5.710;2022-10-16T00:36:42;12.70;99.90
33023;DHT22;19390;51.460;5.710;2022-10-16T00:39:08;12.80;99.90
33023;DHT22;19390;51.460;5.710;2022-10-16T00:41:34;12.70;99.90
33023;DHT22;19390;51.460;5.710;2022-10-16T00:44:02;12.60;99.90
33023;DHT22;19390;51.460;5.710;2022-10-16T00:46:38;12.60;99.90
33023;DHT22;19390;51.460;5.710;2022-10-16T00:49:11;12.50;99.90
33023;DHT22;19390;51.460;5.710;2022-10-16T00:51:46;12.50;99.90
33023;DHT22;19390;51.460;5.710;2022-10-16T00:54:30;12.50;99.90
33023;DHT22;19390;51.460;5.710;2022-10-16T00:56:59;12.50;99.90
33023;DHT22;19390;51.460;5.710;2022-10-16T00:59:28;12.50;99.90
33023;DHT22;19390;51.460;5.710;2022-10-16T01:01:55;12.40;99.90
33023;DHT22;19390;51.460;5.710;2022-10-16T01:04:22;12.40;99.90
33023;DHT22;19390;51.460;5.710;2022-10-16T01:06:59;12.30;99.90
33023;DHT22;19390;51.460;5.710;2022-10-16T01:09:43;12.30;99.90
33023;DHT22;19390;51.460;5.710;2022-10-16T01:12:26;12.40;99.90
33023;DHT22;19390;51.460;5.710;2022-10-16T01:17:32;12.30;99.90
33023;DHT22;19390;51.460;5.710;2022-10-16T01:25:17;12.10;99.90
33023;DHT22;19390;51.460;5.710;2022-10-16T01:27:45;12.20;99.90
33023;DHT22;19390;51.460;5.710;2022-10-16T01:30:26;12.00;99.90
33023;DHT22;19390;51.460;5.710;2022-10-16T01:33:02;12.10;99.90
33023;DHT22;19390;51.460;5.710;2022-10-16T01:35:36;12.10;99.90
33023;DHT22;19390;51.460;5.710;2022-10-16T01:38:23;12.00;99.90
33023;DHT22;19390;51.460;5.710;2022-10-16T01:40:55;12.00;99.90
33023;DHT22;19390;51.460;5.710;2022-10-16T01:43:40;11.90;99.90
33023;DHT22;19390;51.460;5.710;2022-10-16T01:46:08;11.90;99.90
33023;DHT22;19390;51.460;5.710;2022-10-16T01:48:36;12.00;99.90
33023;DHT22;19390;51.460;5.710;2022-10-16T01:51:11;12.00;99.90
33023;DHT22;19390;51.460;5.710;2022-10-16T01:53:38;11.90;99.90
33023;DHT22;19390;51.460;5.710;2022-10-16T01:56:08;12.00;99.90
33023;DHT22;19390;51.460;5.710;2022-10-16T01:58:40;12.00;99.90
33023;DHT22;19390;51.460;5.710;2022-10-16T02:01:10;12.00;99.90
33023;DHT22;19390;51.460;5.710;2022-10-16T02:03:38;11.90;99.90
33023;DHT22;19390;51.460;5.710;2022-10-16T02:06:04;12.00;99.90
33023;DHT22;19390;51.460;5.710;2022-10-16T02:08:30;12.00;99.90
33023;DHT22;19390;51.460;5.710;2022-10-16T02:10:57;12.00;99.90
33023;DHT22;19390;51.460;5.710;2022-10-16T02:16:04;12.00;99.90
33023;DHT22;19390;51.460;5.710;2022-10-16T02:18:30;11.90;99.90
33023;DHT22;19390;51.460;5.710;2022-10-16T02:21:02;12.00;99.90
33023;DHT22;19390;51.460;5.710;2022-10-16T02:26:28;12.00;99.90
33023;DHT22;19390;51.460;5.710;2022-10-16T02:29:00;12.10;99.90
33023;DHT22;19390;51.460;5.710;2022-10-16T02:31:29;12.00;99.90
33023;DHT22;19390;51.460;5.710;2022-10-16T02:33:58;11.90;99.90
33023;DHT22;19390;51.460;5.710;2022-10-16T02:36:26;11.90;99.90
33023;DHT22;19390;51.460;5.710;2022-10-16T02:38:52;11.90;99.90
33023;DHT22;19390;51.460;5.710;2022-10-16T02:41:21;11.90;99.90
33023;DHT22;19390;51.460;5.710;2022-10-16T02:43:46;11.80;99.90
33023;DHT22;19390;51.460;5.710;2022-10-16T02:46:12;11.90;99.90
33023;DHT22;19390;51.460;5.710;2022-10-16T02:48:37;11.80;99.90
33023;DHT22;19390;51.460;5.710;2022-10-16T02:51:04;11.80;99.90
33023;DHT22;19390;51.460;5.710;2022-10-16T02:53:30;11.90;99.90
33023;DHT22;19390;51.460;5.710;2022-10-16T02:55:56;11.80;99.90
33023;DHT22;19390;51.460;5.710;2022-10-16T02:58:21;11.80;99.90
33023;DHT22;19390;51.460;5.710;2022-10-16T03:00:47;11.80;99.90
33023;DHT22;19390;51.460;5.710;2022-10-16T03:03:13;11.80;99.90
33023;DHT22;19390;51.460;5.710;2022-10-16T03:05:39;11.70;99.90
33023;DHT22;19390;51.460;5.710;2022-10-16T03:08:04;11.70;99.90
33023;DHT22;19390;51.460;5.710;2022-10-16T03:10:30;11.60;99.90
33023;DHT22;19390;51.460;5.710;2022-10-16T03:12:56;11.70;99.90
33023;DHT22;19390;51.460;5.710;2022-10-16T03:15:21;11.70;99.90
33023;DHT22;19390;51.460;5.710;2022-10-16T03:17:47;11.70;99.90
33023;DHT22;19390;51.460;5.710;2022-10-16T03:20:13;11.80;99.90
33023;DHT22;19390;51.460;5.710;2022-10-16T03:22:38;11.80;99.90
33023;DHT22;19390;51.460;5.710;2022-10-16T03:25:04;11.90;99.90
33023;DHT22;19390;51.460;5.710;2022-10-16T03:27:30;11.80;99.90
33023;DHT22;19390;51.460;5.710;2022-10-16T03:29:56;11.90;99.90
33023;DHT22;19390;51.460;5.710;2022-10-16T03:32:22;12.00;99.90
33023;DHT22;19390;51.460;5.710;2022-10-16T03:34:48;11.90;99.90
33023;DHT22;19390;51.460;5.710;2022-10-16T03:37:13;12.00;99.90
33023;DHT22;19390;51.460;5.710;2022-10-16T03:39:39;11.90;99.90
33023;DHT22;19390;51.460;5.710;2022-10-16T03:42:04;11.90;99.90
33023;DHT22;19390;51.460;5.710;2022-10-16T03:44:30;12.10;99.90
33023;DHT22;19390;51.460;5.710;2022-10-16T03:46:56;12.00;99.90
33023;DHT22;19390;51.460;5.710;2022-10-16T03:49:21;12.10;99.90
33023;DHT22;19390;51.460;5.710;2022-10-16T03:51:47;12.30;99.90
33023;DHT22;19390;51.460;5.710;2022-10-16T03:54:12;12.20;99.90
33023;DHT22;19390;51.460;5.710;2022-10-16T03:56:38;12.20;99.90
33023;DHT22;19390;51.460;5.710;2022-10-16T03:59:04;12.20;99.90
33023;DHT22;19390;51.460;5.710;2022-10-16T04:01:29;12.20;99.90
33023;DHT22;19390;51.460;5.710;2022-10-16T04:03:55;12.20;99.90
33023;DHT22;19390;51.460;5.710;2022-10-16T04:06:21;12.20;99.90
33023;DHT22;19390;51.460;5.710;2022-10-16T04:08:46;12.10;99.90
33023;DHT22;19390;51.460;5.710;2022-10-16T04:11:12;12.20;99.90
33023;DHT22;19390;51.460;5.710;2022-10-16T04:13:38;12.20;99.90
33023;DHT22;19390;51.460;5.710;2022-10-16T04:16:03;12.20;99.90
33023;DHT22;19390;51.460;5.710;2022-10-16T04:18:29;12.20;99.90
33023;DHT22;19390;51.460;5.710;2022-10-16T04:20:55;12.20;99.90
33023;DHT22;19390;51.460;5.710;2022-10-16T04:23:21;12.30;99.90
33023;DHT22;19390;51.460;5.710;2022-10-16T04:25:48;12.30;99.90
33023;DHT22;19390;51.460;5.710;2022-10-16T04:28:14;12.30;99.90
33023;DHT22;19390;51.460;5.710;2022-10-16T04:30:39;12.40;99.90
33023;DHT22;19390;51.460;5.710;2022-10-16T04:33:05;12.30;99.90
33023;DHT22;19390;51.460;5.710;2022-10-16T04:35:31;12.40;99.90
33023;DHT22;19390;51.460;5.710;2022-10-16T04:37:59;12.40;99.90
33023;DHT22;19390;51.460;5.710;2022-10-16T04:40:25;12.30;99.90
33023;DHT22;19390;51.460;5.710;2022-10-16T04:42:51;12.30;99.90
33023;DHT22;19390;51.460;5.710;2022-10-16T04:45:16;12.40;99.90
33023;DHT22;19390;51.460;5.710;2022-10-16T04:47:42;12.40;99.90
33023;DHT22;19390;51.460;5.710;2022-10-16T04:50:08;12.40;99.90
33023;DHT22;19390;51.460;5.710;2022-10-16T04:52:34;12.30;99.90
33023;DHT22;19390;51.460;5.710;2022-10-16T04:54:59;12.30;99.90
33023;DHT22;19390;51.460;5.710;2022-10-16T04:57:28;12.30;99.90
33023;DHT22;19390;51.460;5.710;2022-10-16T04:59:54;12.30;99.90
33023;DHT22;19390;51.460;5.710;2022-10-16T05:02:20;12.30;99.90
33023;DHT22;19390;51.460;5.710;2022-10-16T05:04:45;12.20;99.90
33023;DHT22;19390;51.460;5.710;2022-10-16T05:07:11;12.30;99.90
33023;DHT22;19390;51.460;5.710;2022-10-16T05:09:37;12.30;99.90
33023;DHT22;19390;51.460;5.710;2022-10-16T05:12:02;12.20;99.90
33023;DHT22;19390;51.460;5.710;2022-10-16T05:14:29;12.10;99.90
33023;DHT22;19390;51.460;5.710;2022-10-16T05:16:54;12.30;99.90
33023;DHT22;19390;51.460;5.710;2022-10-16T05:19:20;12.20;99.90
33023;DHT22;19390;51.460;5.710;2022-10-16T05:21:46;12.20;99.90
33023;DHT22;19390;51.460;5.710;2022-10-16T05:24:11;12.40;99.90
33023;DHT22;19390;51.460;5.710;2022-10-16T05:26:37;12.30;99.90
33023;DHT22;19390;51.460;5.710;2022-10-16T05:29:03;12.30;99.90
33023;DHT22;19390;51.460;5.710;2022-10-16T05:31:28;12.20;99.90
33023;DHT22;19390;51.460;5.710;2022-10-16T05:33:58;12.20;99.90
33023;DHT22;19390;51.460;5.710;2022-10-16T05:36:25;12.20;99.90
33023;DHT22;19390;51.460;5.710;2022-10-16T05:38:51;12.30;99.90
33023;DHT22;19390;51.460;5.710;2022-10-16T05:41:18;12.20;99.90
33023;DHT22;19390;51.460;5.710;2022-10-16T05:43:47;12.20;99.90
33023;DHT22;19390;51.460;5.710;2022-10-16T05:46:13;12.30;99.90
33023;DHT22;19390;51.460;5.710;2022-10-16T05:48:39;12.20;99.90
33023;DHT22;19390;51.460;5.710;2022-10-16T05:51:10;12.20;99.90
33023;DHT22;19390;51.460;5.710;2022-10-16T05:53:37;12.20;99.90
33023;DHT22;19390;51.460;5.710;2022-10-16T05:56:03;12.10;99.90
33023;DHT22;19390;51.460;5.710;2022-10-16T05:58:32;12.00;99.90
33023;DHT22;19390;51.460;5.710;2022-10-16T06:01:10;12.10;99.90
33023;DHT22;19390;51.460;5.710;2022-10-16T06:03:37;12.20;99.90
33023;DHT22;19390;51.460;5.710;2022-10-16T06:06:14;12.10;99.90
33023;DHT22;19390;51.460;5.710;2022-10-16T06:08:42;12.20;99.90
33023;DHT22;19390;51.460;5.710;2022-10-16T06:11:10;12.10;99.90
33023;DHT22;19390;51.460;5.710;2022-10-16T06:13:36;12.10;99.90
33023;DHT22;19390;51.460;5.710;2022-10-16T06:16:03;12.00;99.90
33023;DHT22;19390;51.460;5.710;2022-10-16T06:18:29;12.20;99.90
33023;DHT22;19390;51.460;5.710;2022-10-16T06:20:56;12.10;99.90
33023;DHT22;19390;51.460;5.710;2022-10-16T06:23:22;12.10;99.90
33023;DHT22;19390;51.460;5.710;2022-10-16T06:25:48;12.10;99.90
33023;DHT22;19390;51.460;5.710;2022-10-16T06:28:14;12.20;99.90
33023;DHT22;19390;51.460;5.710;2022-10-16T06:30:40;12.20;99.90
33023;DHT22;19390;51.460;5.710;2022-10-16T06:33:06;12.20;99.90
33023;DHT22;19390;51.460;5.710;2022-10-16T06:35:32;12.20;99.90
33023;DHT22;19390;51.460;5.710;2022-10-16T06:37:58;12.30;99.90
33023;DHT22;19390;51.460;5.710;2022-10-16T06:40:23;12.20;99.90
33023;DHT22;19390;51.460;5.710;2022-10-16T06:42:49;12.20;99.90
33023;DHT22;19390;51.460;5.710;2022-10-16T06:45:17;12.20;99.90
33023;DHT22;19390;51.460;5.710;2022-10-16T06:47:42;12.30;99.90
33023;DHT22;19390;51.460;5.710;2022-10-16T06:50:08;12.30;99.90
33023;DHT22;19390;51.460;5.710;2022-10-16T06:52:34;12.40;99.90
33023;DHT22;19390;51.460;5.710;2022-10-16T06:55:00;12.60;99.90
33023;DHT22;19390;51.460;5.710;2022-10-16T06:57:26;13.40;99.90
33023;DHT22;19390;51.460;5.710;2022-10-16T06:59:51;13.40;99.90
33023;DHT22;19390;51.460;5.710;2022-10-16T07:02:17;13.30;99.90
33023;DHT22;19390;51.460;5.710;2022-10-16T07:04:43;13.30;99.90
33023;DHT22;19390;51.460;5.710;2022-10-16T07:07:08;15.30;99.90
33023;DHT22;19390;51.460;5.710;2022-10-16T07:09:34;18.00;99.90
33023;DHT22;19390;51.460;5.710;2022-10-16T07:12:00;19.30;99.90
33023;DHT22;19390;51.460;5.710;2022-10-16T07:14:25;21.40;99.90
33023;DHT22;19390;51.460;5.710;2022-10-16T07:16:51;22.50;99.90
33023;DHT22;19390;51.460;5.710;2022-10-16T07:19:16;22.30;99.90
33023;DHT22;19390;51.460;5.710;2022-10-16T07:21:43;21.50;99.90
33023;DHT22;19390;51.460;5.710;2022-10-16T07:24:16;22.10;99.90
33023;DHT22;19390;51.460;5.710;2022-10-16T07:26:43;22.90;99.90
33023;DHT22;19390;51.460;5.710;2022-10-16T07:29:13;22.90;99.90
33023;DHT22;19390;51.460;5.710;2022-10-16T07:31:39;22.70;99.90
33023;DHT22;19390;51.460;5.710;2022-10-16T07:34:05;22.80;99.90
33023;DHT22;19390;51.460;5.710;2022-10-16T07:36:31;21.60;99.90
33023;DHT22;19390;51.460;5.710;2022-10-16T07:38:56;23.60;99.90
33023;DHT22;19390;51.460;5.710;2022-10-16T07:41:22;22.80;99.90
33023;DHT22;19390;51.460;5.710;2022-10-16T07:43:52;22.10;99.90
33023;DHT22;19390;51.460;5.710;2022-10-16T07:46:21;21.40;99.90
33023;DHT22;19390;51.460;5.710;2022-10-16T07:48:47;23.10;99.90
33023;DHT22;19390;51.460;5.710;2022-10-16T07:51:22;23.20;99.90
33023;DHT22;19390;51.460;5.710;2022-10-16T07:53:48;23.60;99.90
33023;DHT22;19390;51.460;5.710;2022-10-16T07:56:15;25.40;99.90
33023;DHT22;19390;51.460;5.710;2022-10-16T07:58:41;25.30;99.90
33023;DHT22;19390;51.460;5.710;2022-10-16T08:01:08;24.90;99.90
33023;DHT22;19390;51.460;5.710;2022-10-16T08:03:34;23.50;99.90
33023;DHT22;19390;51.460;5.710;2022-10-16T08:06:00;23.60;99.90
33023;DHT22;19390;51.460;5.710;2022-10-16T08:08:27;23.20;99.90
33023;DHT22;19390;51.460;5.710;2022-10-16T08:10:53;24.00;99.90
33023;DHT22;19390;51.460;5.710;2022-10-16T08:13:19;24.10;99.90
33023;DHT22;19390;51.460;5.710;2022-10-16T08:15:45;23.20;99.90
33023;DHT22;19390;51.460;5.710;2022-10-16T08:18:13;22.90;99.90
33023;DHT22;19390;51.460;5.710;2022-10-16T08:20:39;22.90;99.90
33023;DHT22;19390;51.460;5.710;2022-10-16T08:23:06;23.60;99.90
33023;DHT22;19390;51.460;5.710;2022-10-16T08:25:34;23.50;99.90
33023;DHT22;19390;51.460;5.710;2022-10-16T08:28:02;21.10;99.90
33023;DHT22;19390;51.460;5.710;2022-10-16T08:30:28;22.70;99.90
33023;DHT22;19390;51.460;5.710;2022-10-16T08:32:53;21.70;99.90
33023;DHT22;19390;51.460;5.710;2022-10-16T08:35:19;22.60;99.90
33023;DHT22;19390;51.460;5.710;2022-10-16T08:37:45;23.40;99.90
33023;DHT22;19390;51.460;5.710;2022-10-16T08:40:20;24.60;99.90
33023;DHT22;19390;51.460;5.710;2022-10-16T08:51:23;22.50;99.90
33023;DHT22;19390;51.460;5.710;2022-10-16T08:53:56;23.60;99.90
33023;DHT22;19390;51.460;5.710;2022-10-16T08:56:23;21.80;99.90
33023;DHT22;19390;51.460;5.710;2022-10-16T08:58:51;20.60;99.90
33023;DHT22;19390;51.460;5.710;2022-10-16T09:01:20;20.80;99.90
33023;DHT22;19390;51.460;5.710;2022-10-16T09:06:40;24.00;99.90
33023;DHT22;19390;51.460;5.710;2022-10-16T09:12:21;18.30;99.90
33023;DHT22;19390;51.460;5.710;2022-10-16T09:23:26;17.00;99.90
33023;DHT22;19390;51.460;5.710;2022-10-16T09:25:53;17.10;99.90
33023;DHT22;19390;51.460;5.710;2022-10-16T09:28:20;17.10;99.90
33023;DHT22;19390;51.460;5.710;2022-10-16T09:30:47;16.90;99.90
33023;DHT22;19390;51.460;5.710;2022-10-16T09:33:15;16.90;99.90
33023;DHT22;19390;51.460;5.710;2022-10-16T09:35:54;17.40;99.90
33023;DHT22;19390;51.460;5.710;2022-10-16T09:38:28;17.50;99.90
33023;DHT22;19390;51.460;5.710;2022-10-16T09:40:54;17.50;99.90
33023;DHT22;19390;51.460;5.710;2022-10-16T09:48:26;18.60;99.90
33023;DHT22;19390;51.460;5.710;2022-10-16T09:50:59;20.30;99.90
33023;DHT22;19390;51.460;5.710;2022-10-16T09:54:01;23.40;99.90
33023;DHT22;19390;51.460;5.710;2022-10-16T09:56:33;23.20;99.90
33023;DHT22;19390;51.460;5.710;2022-10-16T09:59:10;22.10;99.90
33023;DHT22;19390;51.460;5.710;2022-10-16T10:04:04;23.70;99.90
33023;DHT22;19390;51.460;5.710;2022-10-16T10:06:35;22.00;99.90
33023;DHT22;19390;51.460;5.710;2022-10-16T10:11:49;23.50;99.90
33023;DHT22;19390;51.460;5.710;2022-10-16T10:14:24;21.20;99.90
33023;DHT22;19390;51.460;5.710;2022-10-16T10:16:52;20.60;99.90
33023;DHT22;19390;51.460;5.710;2022-10-16T10:19:21;23.20;99.90
33023;DHT22;19390;51.460;5.710;2022-10-16T10:21:47;20.40;99.90
33023;DHT22;19390;51.460;5.710;2022-10-16T10:24:15;22.00;99.90
33023;DHT22;19390;51.460;5.710;2022-10-16T10:29:38;25.40;99.90
33023;DHT22;19390;51.460;5.710;2022-10-16T10:41:10;21.50;99.90
33023;DHT22;19390;51.460;5.710;2022-10-16T10:57:09;19.40;99.90
33023;DHT22;19390;51.460;5.710;2022-10-16T11:03:00;18.50;99.90
33023;DHT22;19390;51.460;5.710;2022-10-16T11:05:43;22.40;99.90
33023;DHT22;19390;51.460;5.710;2022-10-16T11:08:21;19.90;99.90
33023;DHT22;19390;51.460;5.710;2022-10-16T11:11:18;19.20;99.90
33023;DHT22;19390;51.460;5.710;2022-10-16T11:13:56;20.10;99.90
33023;DHT22;19390;51.460;5.710;2022-10-16T11:16:32;20.50;99.90
33023;DHT22;19390;51.460;5.710;2022-10-16T11:19:02;19.50;99.90
33023;DHT22;19390;51.460;5.710;2022-10-16T11:21:40;19.10;99.90
33023;DHT22;19390;51.460;5.710;2022-10-16T11:24:21;22.30;99.90
33023;DHT22;19390;51.460;5.710;2022-10-16T11:26:49;26.20;99.90
33023;DHT22;19390;51.460;5.710;2022-10-16T11:29:23;26.50;99.90
33023;DHT22;19390;51.460;5.710;2022-10-16T11:31:55;26.90;99.90
33023;DHT22;19390;51.460;5.710;2022-10-16T11:34:43;27.70;99.90
33023;DHT22;19390;51.460;5.710;2022-10-16T11:37:14;29.70;99.90
33023;DHT22;19390;51.460;5.710;2022-10-16T11:39:43;29.70;99.90
33023;DHT22;19390;51.460;5.710;2022-10-16T11:42:22;28.40;99.90
33023;DHT22;19390;51.460;5.710;2022-10-16T11:47:57;29.60;99.90
33023;DHT22;19390;51.460;5.710;2022-10-16T11:53:18;29.20;99.90
33023;DHT22;19390;51.460;5.710;2022-10-16T11:55:47;28.00;99.90
33023;DHT22;19390;51.460;5.710;2022-10-16T12:03:29;20.00;99.90
33023;DHT22;19390;51.460;5.710;2022-10-16T12:08:53;23.30;99.90
33023;DHT22;19390;51.460;5.710;2022-10-16T12:13:48;22.30;99.90
33023;DHT22;19390;51.460;5.710;2022-10-16T12:18:45;26.20;99.90
33023;DHT22;19390;51.460;5.710;2022-10-16T12:21:13;25.80;99.90
33023;DHT22;19390;51.460;5.710;2022-10-16T12:23:54;26.30;99.90
33023;DHT22;19390;51.460;5.710;2022-10-16T12:26:26;26.70;99.90
33023;DHT22;19390;51.460;5.710;2022-10-16T12:28:53;26.50;99.90
33023;DHT22;19390;51.460;5.710;2022-10-16T12:31:19;27.60;99.90
33023;DHT22;19390;51.460;5.710;2022-10-16T12:33:59;26.30;99.90
33023;DHT22;19390;51.460;5.710;2022-10-16T12:36:35;28.00;99.90
33023;DHT22;19390;51.460;5.710;2022-10-16T12:39:02;28.70;99.90
33023;DHT22;19390;51.460;5.710;2022-10-16T12:41:34;28.40;99.90
33023;DHT22;19390;51.460;5.710;2022-10-16T12:44:05;26.50;99.90
33023;DHT22;19390;51.460;5.710;2022-10-16T12:46:46;23.90;99.90
33023;DHT22;19390;51.460;5.710;2022-10-16T12:51:37;24.40;99.90
33023;DHT22;19390;51.460;5.710;2022-10-16T12:54:04;27.20;99.90
33023;DHT22;19390;51.460;5.710;2022-10-16T12:56:43;28.80;99.90
33023;DHT22;19390;51.460;5.710;2022-10-16T12:59:25;26.30;99.90
33023;DHT22;19390;51.460;5.710;2022-10-16T13:07:59;27.10;99.90
33023;DHT22;19390;51.460;5.710;2022-10-16T13:11:20;25.80;99.90
33023;DHT22;19390;51.460;5.710;2022-10-16T13:14:00;23.00;99.90
33023;DHT22;19390;51.460;5.710;2022-10-16T13:19:21;24.20;99.90
33023;DHT22;19390;51.460;5.710;2022-10-16T13:21:51;23.90;99.90
33023;DHT22;19390;51.460;5.710;2022-10-16T13:26:57;24.50;99.90
33023;DHT22;19390;51.460;5.710;2022-10-16T13:29:30;26.90;99.90
33023;DHT22;19390;51.460;5.710;2022-10-16T13:31:58;27.10;99.90
33023;DHT22;19390;51.460;5.710;2022-10-16T13:34:25;23.70;99.90
33023;DHT22;19390;51.460;5.710;2022-10-16T13:36:52;21.20;99.90
33023;DHT22;19390;51.460;5.710;2022-10-16T13:39:22;20.80;99.90
33023;DHT22;19390;51.460;5.710;2022-10-16T13:44:35;20.20;99.90
33023;DHT22;19390;51.460;5.710;2022-10-16T13:47:02;20.00;99.90
33023;DHT22;19390;51.460;5.710;2022-10-16T13:49:28;19.90;99.90
33023;DHT22;19390;51.460;5.710;2022-10-16T13:51:58;19.20;99.90
33023;DHT22;19390;51.460;5.710;2022-10-16T13:54:26;19.70;99.90
33023;DHT22;19390;51.460;5.710;2022-10-16T13:56:52;19.70;99.90
33023;DHT22;19390;51.460;5.710;2022-10-16T13:59:25;19.20;99.90
33023;DHT22;19390;51.460;5.710;2022-10-16T14:01:53;19.40;99.90
33023;DHT22;19390;51.460;5.710;2022-10-16T14:04:19;19.20;99.90
33023;DHT22;19390;51.460;5.710;2022-10-16T14:06:48;18.90;99.90
33023;DHT22;19390;51.460;5.710;2022-10-16T14:11:56;18.80;99.90
33023;DHT22;19390;51.460;5.710;2022-10-16T14:14:22;19.20;99.90
33023;DHT22;19390;51.460;5.710;2022-10-16T14:16:49;18.80;99.90
33023;DHT22;19390;51.460;5.710;2022-10-16T14:19:26;18.90;99.90
33023;DHT22;19390;51.460;5.710;2022-10-16T14:21:52;18.90;99.90
33023;DHT22;19390;51.460;5.710;2022-10-16T14:24:33;18.80;99.90
33023;DHT22;19390;51.460;5.710;2022-10-16T14:26:59;18.40;99.90
33023;DHT22;19390;51.460;5.710;2022-10-16T14:29:27;18.60;99.90
33023;DHT22;19390;51.460;5.710;2022-10-16T14:31:58;18.70;99.90
33023;DHT22;19390;51.460;5.710;2022-10-16T14:34:31;19.00;99.90
33023;DHT22;19390;51.460;5.710;2022-10-16T14:37:00;19.00;99.90
33023;DHT22;19390;51.460;5.710;2022-10-16T14:39:30;19.00;99.90
33023;DHT22;19390;51.460;5.710;2022-10-16T14:41:56;18.90;99.90
33023;DHT22;19390;51.460;5.710;2022-10-16T14:44:31;18.60;99.90
33023;DHT22;19390;51.460;5.710;2022-10-16T14:46:57;18.70;99.90
33023;DHT22;19390;51.460;5.710;2022-10-16T14:49:25;18.50;99.90
33023;DHT22;19390;51.460;5.710;2022-10-16T14:51:51;18.90;99.90
33023;DHT22;19390;51.460;5.710;2022-10-16T14:54:18;18.50;99.90
33023;DHT22;19390;51.460;5.710;2022-10-16T14:56:52;18.70;99.90
33023;DHT22;19390;51.460;5.710;2022-10-16T14:59:28;18.50;99.90
33023;DHT22;19390;51.460;5.710;2022-10-16T15:01:55;18.30;99.90
33023;DHT22;19390;51.460;5.710;2022-10-16T15:04:21;18.40;99.90
33023;DHT22;19390;51.460;5.710;2022-10-16T15:06:47;18.20;99.90
33023;DHT22;19390;51.460;5.710;2022-10-16T15:09:13;18.70;99.90
33023;DHT22;19390;51.460;5.710;2022-10-16T15:11:38;18.70;99.90
33023;DHT22;19390;51.460;5.710;2022-10-16T15:14:04;18.60;99.90
33023;DHT22;19390;51.460;5.710;2022-10-16T15:16:32;18.40;99.90
33023;DHT22;19390;51.460;5.710;2022-10-16T15:18:58;18.40;99.90
33023;DHT22;19390;51.460;5.710;2022-10-16T15:21:24;18.40;99.90
33023;DHT22;19390;51.460;5.710;2022-10-16T15:23:51;18.20;99.90
33023;DHT22;19390;51.460;5.710;2022-10-16T15:26:17;18.10;99.90
33023;DHT22;19390;51.460;5.710;2022-10-16T15:28:43;18.10;99.90
33023;DHT22;19390;51.460;5.710;2022-10-16T15:31:09;18.10;99.90
33023;DHT22;19390;51.460;5.710;2022-10-16T15:33:34;18.00;99.90
33023;DHT22;19390;51.460;5.710;2022-10-16T15:36:01;18.00;99.90
33023;DHT22;19390;51.460;5.710;2022-10-16T15:38:28;18.00;99.90
33023;DHT22;19390;51.460;5.710;2022-10-16T15:40:54;18.20;99.90
33023;DHT22;19390;51.460;5.710;2022-10-16T15:43:20;17.90;99.90
33023;DHT22;19390;51.460;5.710;2022-10-16T15:46:06;17.90;99.90
33023;DHT22;19390;51.460;5.710;2022-10-16T15:48:32;17.80;99.90
33023;DHT22;19390;51.460;5.710;2022-10-16T15:50:59;17.90;99.90
33023;DHT22;19390;51.460;5.710;2022-10-16T15:53:25;18.10;99.90
33023;DHT22;19390;51.460;5.710;2022-10-16T15:55:51;17.90;99.90
33023;DHT22;19390;51.460;5.710;2022-10-16T15:58:17;18.00;99.90
33023;DHT22;19390;51.460;5.710;2022-10-16T16:00:42;18.00;99.90
33023;DHT22;19390;51.460;5.710;2022-10-16T16:03:08;18.10;99.90
33023;DHT22;19390;51.460;5.710;2022-10-16T16:05:37;18.10;99.90
33023;DHT22;19390;51.460;5.710;2022-10-16T16:08:03;18.20;99.90
33023;DHT22;19390;51.460;5.710;2022-10-16T16:10:29;18.60;99.90
33023;DHT22;19390;51.460;5.710;2022-10-16T16:12:55;18.30;99.90
33023;DHT22;19390;51.460;5.710;2022-10-16T16:15:21;18.10;99.90
33023;DHT22;19390;51.460;5.710;2022-10-16T16:17:48;17.70;99.90
33023;DHT22;19390;51.460;5.710;2022-10-16T16:20:14;17.30;99.90
33023;DHT22;19390;51.460;5.710;2022-10-16T16:22:39;17.10;99.90
33023;DHT22;19390;51.460;5.710;2022-10-16T16:25:05;17.30;99.90
33023;DHT22;19390;51.460;5.710;2022-10-16T16:27:31;17.00;99.90
33023;DHT22;19390;51.460;5.710;2022-10-16T16:30:00;17.00;99.90
33023;DHT22;19390;51.460;5.710;2022-10-16T16:32:25;17.20;99.90
33023;DHT22;19390;51.460;5.710;2022-10-16T16:34:51;17.20;99.90
33023;DHT22;19390;51.460;5.710;2022-10-16T16:37:17;16.80;99.90
33023;DHT22;19390;51.460;5.710;2022-10-16T16:39:42;16.70;99.90
33023;DHT22;19390;51.460;5.710;2022-10-16T16:42:08;16.50;99.90
33023;DHT22;19390;51.460;5.710;2022-10-16T16:44:35;16.60;99.90
33023;DHT22;19390;51.460;5.710;2022-10-16T16:47:02;16.70;99.90
33023;DHT22;19390;51.460;5.710;2022-10-16T16:49:28;16.60;99.90
33023;DHT22;19390;51.460;5.710;2022-10-16T16:51:54;16.50;99.90
33023;DHT22;19390;51.460;5.710;2022-10-16T16:54:19;16.40;99.90
33023;DHT22;19390;51.460;5.710;2022-10-16T16:56:45;16.40;99.90
33023;DHT22;19390;51.460;5.710;2022-10-16T16:59:14;16.60;99.90
33023;DHT22;19390;51.460;5.710;2022-10-16T17:01:40;16.80;99.90
33023;DHT22;19390;51.460;5.710;2022-10-16T17:04:06;16.70;99.90
33023;DHT22;19390;51.460;5.710;2022-10-16T17:06:32;16.50;99.90
33023;DHT22;19390;51.460;5.710;2022-10-16T17:09:00;16.40;99.90
33023;DHT22;19390;51.460;5.710;2022-10-16T17:11:27;16.40;99.90
33023;DHT22;19390;51.460;5.710;2022-10-16T17:13:54;16.70;99.90
33023;DHT22;19390;51.460;5.710;2022-10-16T17:16:26;16.50;99.90
33023;DHT22;19390;51.460;5.710;2022-10-16T17:18:51;16.30;99.90
33023;DHT22;19390;51.460;5.710;2022-10-16T17:21:18;16.40;99.90
33023;DHT22;19390;51.460;5.710;2022-10-16T17:23:44;16.30;99.90
33023;DHT22;19390;51.460;5.710;2022-10-16T17:26:17;16.30;99.90
33023;DHT22;19390;51.460;5.710;2022-10-16T17:28:43;16.20;99.90
33023;DHT22;19390;51.460;5.710;2022-10-16T17:31:17;16.30;99.90